EZY14TW EGKK-LFPO
Flight info
| Callsign | EZY14TW |
|---|---|
| Flight time | 0h 59m |
| Altitude | 29000 |
| Route | BOGNA L612 BENBO Y47 DRAKE L151 SITET UN859 DVL A34 BOBSA |
| Aircraft | A320/M-SDE3FGHIRWY/LB1 |
Departure
| Time | 2026-04-15 12:10 |
|---|---|
| Airport | London Gatwick Airport (EGKK) |
Arrival
| Time | 2026-04-15 13:10 |
|---|---|
| Airport | Paris-Orly Airport (LFPO) |
| Time | Latitude | Longitude | Altitude | Speed | Heading |
|---|---|---|---|---|---|
| 2026-04-15 11:48 | 51.15381 | -0.17501 | 213 ft | 0 kts | 347° |
| 2026-04-15 12:04 | 51.15365 | -0.17496 | 214 ft | 3 kts | 349° |
| 2026-04-15 12:04 | 51.15345 | -0.17490 | 213 ft | 3 kts | 354° |
| 2026-04-15 12:04 | 51.15325 | -0.17488 | 208 ft | 3 kts | 5° |
| 2026-04-15 12:04 | 51.15306 | -0.17494 | 214 ft | 3 kts | 34° |
| 2026-04-15 12:05 | 51.15297 | -0.17508 | 217 ft | 1 kts | 86° |
| 2026-04-15 12:05 | 51.15297 | -0.17512 | 217 ft | 0 kts | 90° |
| 2026-04-15 12:07 | 51.15297 | -0.17510 | 217 ft | 1 kts | 90° |
| 2026-04-15 12:07 | 51.15296 | -0.17413 | 205 ft | 12 kts | 91° |
| 2026-04-15 12:07 | 51.15246 | -0.17321 | 205 ft | 12 kts | 146° |
| 2026-04-15 12:07 | 51.15185 | -0.17237 | 208 ft | 9 kts | 113° |
| 2026-04-15 12:08 | 51.15189 | -0.17156 | 214 ft | 7 kts | 75° |
| 2026-04-15 12:08 | 51.15199 | -0.17089 | 205 ft | 6 kts | 77° |
| 2026-04-15 12:08 | 51.15206 | -0.17033 | 205 ft | 5 kts | 79° |
| 2026-04-15 12:08 | 51.15210 | -0.17001 | 205 ft | 4 kts | 79° |
| 2026-04-15 12:09 | 51.15219 | -0.16926 | 209 ft | 13 kts | 77° |
| 2026-04-15 12:09 | 51.15199 | -0.16806 | 206 ft | 12 kts | 148° |
| 2026-04-15 12:09 | 51.15123 | -0.16827 | 212 ft | 11 kts | 227° |
| 2026-04-15 12:09 | 51.15114 | -0.16877 | 217 ft | 2 kts | 260° |
| 2026-04-15 12:10 | 51.15073 | -0.17178 | 207 ft | 64 kts | 257° |
| 2026-04-15 12:10 | 51.14926 | -0.18218 | 212 ft | 126 kts | 258° |
| 2026-04-15 12:10 | 51.14693 | -0.19839 | 272 ft | 167 kts | 253° |
| 2026-04-15 12:10 | 51.14511 | -0.21655 | 971 ft | 164 kts | 249° |
| 2026-04-15 12:11 | 51.14287 | -0.23432 | 1831 ft | 165 kts | 252° |
| 2026-04-15 12:11 | 51.14003 | -0.25324 | 2284 ft | 186 kts | 251° |
| 2026-04-15 12:11 | 51.13689 | -0.27404 | 2816 ft | 199 kts | 251° |
| 2026-04-15 12:11 | 51.13373 | -0.29565 | 3548 ft | 203 kts | 252° |
| 2026-04-15 12:12 | 51.13057 | -0.31772 | 4331 ft | 206 kts | 252° |
| 2026-04-15 12:12 | 51.12739 | -0.34007 | 5083 ft | 210 kts | 252° |
| 2026-04-15 12:12 | 51.12416 | -0.36286 | 5777 ft | 214 kts | 251° |
| 2026-04-15 12:12 | 51.12091 | -0.38595 | 6112 ft | 211 kts | 251° |
| 2026-04-15 12:13 | 51.11493 | -0.40653 | 5722 ft | 204 kts | 225° |
| 2026-04-15 12:13 | 51.10321 | -0.41861 | 5375 ft | 203 kts | 197° |
| 2026-04-15 12:13 | 51.08906 | -0.41964 | 5056 ft | 208 kts | 180° |
| 2026-04-15 12:13 | 51.07457 | -0.41776 | 5013 ft | 210 kts | 180° |
| 2026-04-15 12:14 | 51.06018 | -0.41567 | 5012 ft | 212 kts | 175° |
| 2026-04-15 12:14 | 51.04530 | -0.40938 | 5345 ft | 225 kts | 169° |
| 2026-04-15 12:14 | 51.02998 | -0.40243 | 5886 ft | 242 kts | 169° |
| 2026-04-15 12:14 | 51.01343 | -0.39485 | 6024 ft | 248 kts | 168° |
| 2026-04-15 12:15 | 50.99692 | -0.38716 | 6033 ft | 248 kts | 168° |
| 2026-04-15 12:15 | 50.98040 | -0.37940 | 6031 ft | 247 kts | 168° |
| 2026-04-15 12:15 | 50.96388 | -0.37167 | 6036 ft | 247 kts | 169° |
| 2026-04-15 12:15 | 50.94732 | -0.36403 | 6037 ft | 247 kts | 169° |
| 2026-04-15 12:16 | 50.93077 | -0.35643 | 6038 ft | 248 kts | 168° |
| 2026-04-15 12:16 | 50.91414 | -0.34879 | 6037 ft | 249 kts | 168° |
| 2026-04-15 12:16 | 50.89754 | -0.34117 | 6036 ft | 249 kts | 168° |
| 2026-04-15 12:16 | 50.88090 | -0.33351 | 6036 ft | 249 kts | 168° |
| 2026-04-15 12:17 | 50.86431 | -0.32586 | 6029 ft | 249 kts | 169° |
| 2026-04-15 12:17 | 50.84763 | -0.31832 | 6036 ft | 250 kts | 169° |
| 2026-04-15 12:17 | 50.83076 | -0.31102 | 6181 ft | 256 kts | 169° |
| 2026-04-15 12:17 | 50.81362 | -0.30370 | 7119 ft | 254 kts | 169° |
| 2026-04-15 12:18 | 50.79650 | -0.29635 | 8017 ft | 256 kts | 170° |
| 2026-04-15 12:18 | 50.77919 | -0.28889 | 8879 ft | 260 kts | 169° |
| 2026-04-15 12:18 | 50.76145 | -0.28126 | 9571 ft | 270 kts | 169° |
| 2026-04-15 12:18 | 50.74307 | -0.27339 | 10270 ft | 277 kts | 170° |
| 2026-04-15 12:19 | 50.72437 | -0.26537 | 11045 ft | 279 kts | 170° |
| 2026-04-15 12:19 | 50.70559 | -0.25730 | 11846 ft | 281 kts | 170° |
| 2026-04-15 12:19 | 50.68686 | -0.24923 | 12644 ft | 283 kts | 170° |
| 2026-04-15 12:19 | 50.66755 | -0.24090 | 13465 ft | 285 kts | 170° |
| 2026-04-15 12:20 | 50.64832 | -0.23265 | 14199 ft | 287 kts | 170° |
| 2026-04-15 12:20 | 50.62911 | -0.22443 | 14838 ft | 291 kts | 170° |
| 2026-04-15 12:20 | 50.60955 | -0.21606 | 15483 ft | 294 kts | 170° |
| 2026-04-15 12:20 | 50.58975 | -0.20760 | 16137 ft | 297 kts | 171° |
| 2026-04-15 12:21 | 50.56972 | -0.19906 | 16796 ft | 300 kts | 171° |
| 2026-04-15 12:21 | 50.54947 | -0.19040 | 17448 ft | 303 kts | 171° |
| 2026-04-15 12:21 | 50.52910 | -0.18171 | 18104 ft | 306 kts | 171° |
| 2026-04-15 12:21 | 50.50846 | -0.17290 | 18710 ft | 309 kts | 171° |
| 2026-04-15 12:22 | 50.48764 | -0.16402 | 19286 ft | 311 kts | 171° |
| 2026-04-15 12:22 | 50.46670 | -0.15514 | 19872 ft | 313 kts | 171° |
| 2026-04-15 12:22 | 50.44562 | -0.14622 | 20449 ft | 314 kts | 171° |
| 2026-04-15 12:22 | 50.42446 | -0.13725 | 21016 ft | 316 kts | 171° |
| 2026-04-15 12:23 | 50.40317 | -0.12818 | 21551 ft | 319 kts | 171° |
| 2026-04-15 12:23 | 50.38165 | -0.11905 | 22099 ft | 321 kts | 171° |
| 2026-04-15 12:23 | 50.36000 | -0.10991 | 22661 ft | 323 kts | 171° |
| 2026-04-15 12:23 | 50.33825 | -0.10073 | 23207 ft | 325 kts | 171° |
| 2026-04-15 12:24 | 50.31631 | -0.09147 | 23756 ft | 327 kts | 171° |
| 2026-04-15 12:24 | 50.29423 | -0.08215 | 24211 ft | 329 kts | 171° |
| 2026-04-15 12:24 | 50.27202 | -0.07276 | 24664 ft | 332 kts | 171° |
| 2026-04-15 12:24 | 50.24998 | -0.06347 | 25005 ft | 334 kts | 171° |
| 2026-04-15 12:25 | 50.22757 | -0.05405 | 25080 ft | 333 kts | 171° |
| 2026-04-15 12:25 | 50.20517 | -0.04458 | 25095 ft | 333 kts | 171° |
| 2026-04-15 12:25 | 50.18280 | -0.03514 | 25086 ft | 333 kts | 171° |
| 2026-04-15 12:25 | 50.16036 | -0.02571 | 25100 ft | 334 kts | 171° |
| 2026-04-15 12:26 | 50.13790 | -0.01626 | 25099 ft | 334 kts | 171° |
| 2026-04-15 12:26 | 50.11544 | -0.00683 | 25085 ft | 335 kts | 171° |
| 2026-04-15 12:26 | 50.09284 | 0.00262 | 25085 ft | 337 kts | 171° |
| 2026-04-15 12:26 | 50.07012 | 0.01207 | 25099 ft | 338 kts | 171° |
| 2026-04-15 12:27 | 50.04739 | 0.02154 | 25103 ft | 339 kts | 171° |
| 2026-04-15 12:27 | 50.02462 | 0.03102 | 25101 ft | 339 kts | 171° |
| 2026-04-15 12:27 | 50.00185 | 0.04053 | 25102 ft | 339 kts | 171° |
| 2026-04-15 12:27 | 49.97909 | 0.05006 | 25102 ft | 339 kts | 171° |
| 2026-04-15 12:28 | 49.95636 | 0.05955 | 25081 ft | 339 kts | 171° |
| 2026-04-15 12:28 | 49.93358 | 0.06905 | 25083 ft | 339 kts | 171° |
| 2026-04-15 12:28 | 49.91082 | 0.07848 | 25083 ft | 339 kts | 171° |
| 2026-04-15 12:28 | 49.88798 | 0.08790 | 25086 ft | 339 kts | 171° |
| 2026-04-15 12:29 | 49.86517 | 0.09730 | 25099 ft | 340 kts | 171° |
| 2026-04-15 12:29 | 49.84230 | 0.10665 | 25100 ft | 340 kts | 171° |
| 2026-04-15 12:29 | 49.81951 | 0.11605 | 25105 ft | 340 kts | 171° |
| 2026-04-15 12:29 | 49.79668 | 0.12557 | 25108 ft | 340 kts | 171° |
| 2026-04-15 12:30 | 49.77375 | 0.13508 | 25112 ft | 340 kts | 171° |
| 2026-04-15 12:30 | 49.75091 | 0.14443 | 25117 ft | 340 kts | 171° |
| 2026-04-15 12:30 | 49.72802 | 0.15368 | 25104 ft | 340 kts | 171° |
| 2026-04-15 12:30 | 49.70537 | 0.16290 | 25105 ft | 340 kts | 171° |
| 2026-04-15 12:31 | 49.68247 | 0.17232 | 25111 ft | 341 kts | 171° |
| 2026-04-15 12:31 | 49.65957 | 0.18172 | 25118 ft | 341 kts | 171° |
| 2026-04-15 12:31 | 49.63664 | 0.19111 | 25120 ft | 341 kts | 171° |
| 2026-04-15 12:31 | 49.61373 | 0.20051 | 25124 ft | 341 kts | 171° |
| 2026-04-15 12:32 | 49.59074 | 0.20993 | 25130 ft | 342 kts | 171° |
| 2026-04-15 12:32 | 49.56775 | 0.21935 | 25134 ft | 342 kts | 171° |
| 2026-04-15 12:32 | 49.54479 | 0.22880 | 25135 ft | 341 kts | 171° |
| 2026-04-15 12:32 | 49.52182 | 0.23820 | 25107 ft | 341 kts | 171° |
| 2026-04-15 12:33 | 49.49889 | 0.24756 | 25107 ft | 341 kts | 171° |
| 2026-04-15 12:33 | 49.47591 | 0.25696 | 25109 ft | 342 kts | 171° |
| 2026-04-15 12:33 | 49.45291 | 0.26637 | 25111 ft | 342 kts | 171° |
| 2026-04-15 12:33 | 49.42986 | 0.27580 | 25114 ft | 343 kts | 171° |
| 2026-04-15 12:34 | 49.40677 | 0.28520 | 25118 ft | 343 kts | 171° |
| 2026-04-15 12:34 | 49.38364 | 0.29457 | 24933 ft | 346 kts | 171° |
| 2026-04-15 12:34 | 49.36038 | 0.30394 | 24550 ft | 342 kts | 171° |
| 2026-04-15 12:34 | 49.33780 | 0.31311 | 24480 ft | 331 kts | 171° |
| 2026-04-15 12:35 | 49.31566 | 0.32211 | 24411 ft | 328 kts | 171° |
| 2026-04-15 12:35 | 49.29362 | 0.33103 | 24334 ft | 327 kts | 172° |
| 2026-04-15 12:35 | 49.27121 | 0.34003 | 24270 ft | 342 kts | 171° |
| 2026-04-15 12:35 | 49.24794 | 0.34927 | 24201 ft | 355 kts | 171° |
| 2026-04-15 12:36 | 49.22404 | 0.35887 | 24129 ft | 354 kts | 171° |
| 2026-04-15 12:36 | 49.20029 | 0.36848 | 24057 ft | 353 kts | 171° |
| 2026-04-15 12:36 | 49.17656 | 0.37809 | 23988 ft | 353 kts | 171° |
| 2026-04-15 12:36 | 49.15284 | 0.38768 | 23917 ft | 352 kts | 171° |
| 2026-04-15 12:37 | 49.12916 | 0.39720 | 23844 ft | 352 kts | 171° |
| 2026-04-15 12:37 | 49.10549 | 0.40673 | 23768 ft | 352 kts | 171° |
| 2026-04-15 12:37 | 49.08183 | 0.41626 | 23696 ft | 351 kts | 171° |
| 2026-04-15 12:37 | 49.05816 | 0.42576 | 23598 ft | 352 kts | 171° |
| 2026-04-15 12:38 | 49.03448 | 0.43523 | 23513 ft | 352 kts | 171° |
| 2026-04-15 12:38 | 49.01076 | 0.44470 | 23397 ft | 353 kts | 171° |
| 2026-04-15 12:38 | 48.98692 | 0.45421 | 23314 ft | 354 kts | 171° |
| 2026-04-15 12:38 | 48.96305 | 0.46374 | 23233 ft | 354 kts | 171° |
| 2026-04-15 12:39 | 48.93922 | 0.47326 | 23143 ft | 354 kts | 171° |
| 2026-04-15 12:39 | 48.91540 | 0.48275 | 23059 ft | 354 kts | 171° |
| 2026-04-15 12:39 | 48.89189 | 0.49211 | 22975 ft | 353 kts | 171° |
| 2026-04-15 12:39 | 48.86808 | 0.50161 | 22891 ft | 353 kts | 171° |
| 2026-04-15 12:40 | 48.84434 | 0.51106 | 22807 ft | 353 kts | 171° |
| 2026-04-15 12:40 | 48.82058 | 0.52049 | 22729 ft | 352 kts | 171° |
| 2026-04-15 12:40 | 48.79687 | 0.52985 | 22649 ft | 352 kts | 171° |
| 2026-04-15 12:40 | 48.77316 | 0.53920 | 22576 ft | 352 kts | 171° |
| 2026-04-15 12:41 | 48.74920 | 0.54866 | 22494 ft | 351 kts | 171° |
| 2026-04-15 12:41 | 48.72587 | 0.55787 | 22419 ft | 351 kts | 171° |
| 2026-04-15 12:41 | 48.70227 | 0.56719 | 22339 ft | 351 kts | 171° |
| 2026-04-15 12:41 | 48.67866 | 0.57649 | 22256 ft | 350 kts | 171° |
| 2026-04-15 12:42 | 48.65508 | 0.58577 | 22184 ft | 350 kts | 171° |
| 2026-04-15 12:42 | 48.63153 | 0.59506 | 22085 ft | 351 kts | 171° |
| 2026-04-15 12:42 | 48.60789 | 0.60437 | 22007 ft | 351 kts | 171° |
| 2026-04-15 12:42 | 48.58417 | 0.61369 | 21929 ft | 351 kts | 171° |
| 2026-04-15 12:43 | 48.56056 | 0.62298 | 21857 ft | 351 kts | 171° |
| 2026-04-15 12:43 | 48.53767 | 0.63660 | 21777 ft | 360 kts | 155° |
| 2026-04-15 12:43 | 48.51819 | 0.66113 | 21698 ft | 373 kts | 136° |
| 2026-04-15 12:43 | 48.50482 | 0.69530 | 21621 ft | 387 kts | 115° |
| 2026-04-15 12:44 | 48.49985 | 0.73557 | 21531 ft | 399 kts | 94° |
| 2026-04-15 12:44 | 48.50138 | 0.77762 | 21418 ft | 402 kts | 90° |
| 2026-04-15 12:44 | 48.50331 | 0.81955 | 21157 ft | 401 kts | 90° |
| 2026-04-15 12:44 | 48.50525 | 0.86138 | 20908 ft | 399 kts | 90° |
| 2026-04-15 12:45 | 48.50715 | 0.90294 | 20645 ft | 397 kts | 90° |
| 2026-04-15 12:45 | 48.50899 | 0.94442 | 20398 ft | 396 kts | 90° |
| 2026-04-15 12:45 | 48.51079 | 0.98583 | 20152 ft | 394 kts | 90° |
| 2026-04-15 12:45 | 48.51253 | 1.02696 | 19913 ft | 393 kts | 90° |
| 2026-04-15 12:46 | 48.51419 | 1.06750 | 19672 ft | 391 kts | 90° |
| 2026-04-15 12:46 | 48.51584 | 1.10834 | 19432 ft | 389 kts | 90° |
| 2026-04-15 12:46 | 48.51747 | 1.14904 | 19194 ft | 388 kts | 90° |
| 2026-04-15 12:46 | 48.51913 | 1.18959 | 18958 ft | 387 kts | 90° |
| 2026-04-15 12:47 | 48.52078 | 1.23002 | 18719 ft | 386 kts | 90° |
| 2026-04-15 12:47 | 48.52241 | 1.27035 | 18492 ft | 384 kts | 90° |
| 2026-04-15 12:47 | 48.52401 | 1.31011 | 18206 ft | 373 kts | 89° |
| 2026-04-15 12:47 | 48.52554 | 1.34835 | 17937 ft | 359 kts | 89° |
| 2026-04-15 12:48 | 48.52698 | 1.38560 | 17583 ft | 354 kts | 90° |
| 2026-04-15 12:48 | 48.52838 | 1.42275 | 17108 ft | 355 kts | 90° |
| 2026-04-15 12:48 | 48.52978 | 1.46003 | 16629 ft | 356 kts | 89° |
| 2026-04-15 12:48 | 48.53121 | 1.49713 | 16146 ft | 349 kts | 89° |
| 2026-04-15 12:49 | 48.53261 | 1.53322 | 15687 ft | 341 kts | 89° |
| 2026-04-15 12:49 | 48.53396 | 1.56872 | 15237 ft | 337 kts | 89° |
| 2026-04-15 12:49 | 48.53528 | 1.60377 | 14786 ft | 333 kts | 89° |
| 2026-04-15 12:49 | 48.53655 | 1.63855 | 14344 ft | 333 kts | 90° |
| 2026-04-15 12:50 | 48.53778 | 1.67349 | 13876 ft | 333 kts | 90° |
| 2026-04-15 12:50 | 48.53901 | 1.70820 | 13402 ft | 327 kts | 89° |
| 2026-04-15 12:50 | 48.54024 | 1.74220 | 12964 ft | 324 kts | 89° |
| 2026-04-15 12:50 | 48.54148 | 1.77618 | 12532 ft | 325 kts | 89° |
| 2026-04-15 12:51 | 48.54270 | 1.81023 | 12086 ft | 325 kts | 89° |
| 2026-04-15 12:51 | 48.54391 | 1.84447 | 11657 ft | 326 kts | 89° |
| 2026-04-15 12:51 | 48.54510 | 1.87867 | 11264 ft | 325 kts | 89° |
| 2026-04-15 12:51 | 48.54668 | 1.91220 | 11167 ft | 314 kts | 86° |
| 2026-04-15 12:52 | 48.54878 | 1.94481 | 11182 ft | 312 kts | 86° |
| 2026-04-15 12:52 | 48.55112 | 1.97729 | 11186 ft | 312 kts | 85° |
| 2026-04-15 12:52 | 48.55354 | 2.00988 | 11185 ft | 312 kts | 85° |
| 2026-04-15 12:52 | 48.55590 | 2.04195 | 11185 ft | 311 kts | 85° |
| 2026-04-15 12:53 | 48.55820 | 2.07442 | 11184 ft | 312 kts | 85° |
| 2026-04-15 12:53 | 48.56047 | 2.10742 | 11189 ft | 311 kts | 86° |
| 2026-04-15 12:53 | 48.56263 | 2.13951 | 11195 ft | 311 kts | 86° |
| 2026-04-15 12:53 | 48.56480 | 2.17200 | 11190 ft | 311 kts | 86° |
| 2026-04-15 12:54 | 48.56697 | 2.20499 | 10910 ft | 312 kts | 86° |
| 2026-04-15 12:54 | 48.56908 | 2.23714 | 10503 ft | 311 kts | 86° |
| 2026-04-15 12:54 | 48.57121 | 2.26908 | 10095 ft | 300 kts | 86° |
| 2026-04-15 12:54 | 48.57332 | 2.29993 | 9643 ft | 290 kts | 86° |
| 2026-04-15 12:55 | 48.57528 | 2.32971 | 9200 ft | 281 kts | 86° |
| 2026-04-15 12:55 | 48.57707 | 2.35889 | 8760 ft | 277 kts | 87° |
| 2026-04-15 12:55 | 48.57876 | 2.38782 | 8325 ft | 275 kts | 87° |
| 2026-04-15 12:55 | 48.58035 | 2.41640 | 7895 ft | 273 kts | 87° |
| 2026-04-15 12:56 | 48.58191 | 2.44488 | 7470 ft | 272 kts | 87° |
| 2026-04-15 12:56 | 48.58346 | 2.47321 | 7208 ft | 270 kts | 87° |
| 2026-04-15 12:56 | 48.58500 | 2.50132 | 7188 ft | 267 kts | 86° |
| 2026-04-15 12:56 | 48.58711 | 2.51963 | 7189 ft | 267 kts | 77° |
| 2026-04-15 12:57 | 48.59272 | 2.54644 | 7192 ft | 268 kts | 69° |
| 2026-04-15 12:57 | 48.60003 | 2.57237 | 7193 ft | 268 kts | 66° |
| 2026-04-15 12:57 | 48.60751 | 2.59777 | 7186 ft | 255 kts | 66° |
| 2026-04-15 12:57 | 48.61433 | 2.62103 | 7183 ft | 231 kts | 66° |
| 2026-04-15 12:58 | 48.62058 | 2.64284 | 7192 ft | 220 kts | 66° |
| 2026-04-15 12:58 | 48.62659 | 2.66403 | 7034 ft | 216 kts | 66° |
| 2026-04-15 12:58 | 48.63242 | 2.68467 | 6671 ft | 218 kts | 66° |
| 2026-04-15 12:58 | 48.63845 | 2.70628 | 6290 ft | 223 kts | 67° |
| 2026-04-15 12:59 | 48.65119 | 2.74997 | 5508 ft | 231 kts | 64° |
| 2026-04-15 12:59 | 48.65856 | 2.77176 | 5132 ft | 234 kts | 62° |
| 2026-04-15 12:59 | 48.66600 | 2.79312 | 5003 ft | 226 kts | 62° |
| 2026-04-15 13:00 | 48.67314 | 2.81342 | 4994 ft | 213 kts | 62° |
| 2026-04-15 13:00 | 48.68208 | 2.83075 | 5000 ft | 210 kts | 39° |
| 2026-04-15 13:00 | 48.69381 | 2.84428 | 5005 ft | 209 kts | 33° |
| 2026-04-15 13:00 | 48.70556 | 2.85652 | 5002 ft | 207 kts | 32° |
| 2026-04-15 13:01 | 48.71754 | 2.86878 | 5003 ft | 208 kts | 32° |
| 2026-04-15 13:01 | 48.72958 | 2.88107 | 5001 ft | 208 kts | 32° |
| 2026-04-15 13:01 | 48.74158 | 2.89332 | 4999 ft | 208 kts | 32° |
| 2026-04-15 13:01 | 48.75365 | 2.90559 | 5001 ft | 209 kts | 32° |
| 2026-04-15 13:02 | 48.76682 | 2.91333 | 4998 ft | 202 kts | 356° |
| 2026-04-15 13:02 | 48.77985 | 2.90801 | 5002 ft | 193 kts | 317° |
| 2026-04-15 13:02 | 48.78778 | 2.89259 | 5002 ft | 184 kts | 285° |
| 2026-04-15 13:02 | 48.78935 | 2.87370 | 4756 ft | 183 kts | 262° |
| 2026-04-15 13:03 | 48.78828 | 2.85448 | 4366 ft | 182 kts | 263° |
| 2026-04-15 13:03 | 48.78722 | 2.83541 | 4006 ft | 181 kts | 262° |
| 2026-04-15 13:03 | 48.78621 | 2.81647 | 3649 ft | 180 kts | 261° |
| 2026-04-15 13:03 | 48.78523 | 2.79754 | 3302 ft | 180 kts | 261° |
| 2026-04-15 13:04 | 48.78395 | 2.77874 | 3023 ft | 177 kts | 260° |
| 2026-04-15 13:04 | 48.78260 | 2.76013 | 3012 ft | 179 kts | 259° |
| 2026-04-15 13:04 | 48.78124 | 2.74133 | 3014 ft | 179 kts | 260° |
| 2026-04-15 13:04 | 48.77989 | 2.72258 | 3017 ft | 179 kts | 260° |
| 2026-04-15 13:05 | 48.77854 | 2.70379 | 3009 ft | 180 kts | 261° |
| 2026-04-15 13:05 | 48.77725 | 2.68487 | 3011 ft | 180 kts | 258° |
| 2026-04-15 13:05 | 48.77508 | 2.66634 | 3007 ft | 176 kts | 254° |
| 2026-04-15 13:05 | 48.77218 | 2.64823 | 3008 ft | 178 kts | 252° |
| 2026-04-15 13:06 | 48.76901 | 2.63006 | 3052 ft | 179 kts | 252° |
| 2026-04-15 13:06 | 48.76577 | 2.61198 | 3023 ft | 177 kts | 252° |
| 2026-04-15 13:06 | 48.76251 | 2.59402 | 2918 ft | 176 kts | 252° |
| 2026-04-15 13:06 | 48.75933 | 2.57651 | 2730 ft | 174 kts | 251° |
| 2026-04-15 13:07 | 48.75608 | 2.55867 | 2514 ft | 172 kts | 252° |
| 2026-04-15 13:07 | 48.75292 | 2.54135 | 2286 ft | 173 kts | 252° |
| 2026-04-15 13:07 | 48.74971 | 2.52375 | 2049 ft | 173 kts | 250° |
| 2026-04-15 13:07 | 48.74650 | 2.50620 | 1819 ft | 173 kts | 252° |
| 2026-04-15 13:08 | 48.74337 | 2.48905 | 1578 ft | 164 kts | 251° |
| 2026-04-15 13:08 | 48.74042 | 2.47288 | 1357 ft | 152 kts | 251° |
| 2026-04-15 13:08 | 48.73771 | 2.45808 | 1153 ft | 140 kts | 251° |
| 2026-04-15 13:08 | 48.73514 | 2.44412 | 983 ft | 137 kts | 251° |
| 2026-04-15 13:09 | 48.73260 | 2.43029 | 809 ft | 133 kts | 250° |
| 2026-04-15 13:09 | 48.73012 | 2.41700 | 519 ft | 132 kts | 255° |
| 2026-04-15 13:09 | 48.72780 | 2.40338 | 356 ft | 135 kts | 251° |
| 2026-04-15 13:09 | 48.72527 | 2.39031 | 300 ft | 115 kts | 251° |
| 2026-04-15 13:10 | 48.72375 | 2.38223 | 301 ft | 51 kts | 256° |
| 2026-04-15 13:10 | 48.72318 | 2.37892 | 297 ft | 19 kts | 258° |
| 2026-04-15 13:10 | 48.72330 | 2.37734 | 296 ft | 16 kts | 298° |
| 2026-04-15 13:10 | 48.72370 | 2.37663 | 298 ft | 4 kts | 322° |
| 2026-04-15 13:11 | 48.72371 | 2.37662 | 298 ft | 0 kts | 323° |
| 2026-04-15 13:12 | 48.72375 | 2.37658 | 298 ft | 2 kts | 323° |
| 2026-04-15 13:12 | 48.72383 | 2.37650 | 298 ft | 1 kts | 326° |
| 2026-04-15 13:12 | 48.72385 | 2.37648 | 299 ft | 0 kts | 327° |
| 2026-04-15 13:13 | 48.72421 | 2.37621 | 300 ft | 10 kts | 339° |
| 2026-04-15 13:13 | 48.72488 | 2.37611 | 299 ft | 9 kts | 358° |
| 2026-04-15 13:13 | 48.72538 | 2.37538 | 296 ft | 11 kts | 305° |
| 2026-04-15 13:13 | 48.72593 | 2.37450 | 296 ft | 11 kts | 305° |
| 2026-04-15 13:14 | 48.72624 | 2.37354 | 296 ft | 10 kts | 277° |
| 2026-04-15 13:14 | 48.72608 | 2.37223 | 296 ft | 14 kts | 256° |
| 2026-04-15 13:14 | 48.72581 | 2.37072 | 297 ft | 16 kts | 254° |
| 2026-04-15 13:14 | 48.72548 | 2.36907 | 296 ft | 17 kts | 253° |
| 2026-04-15 13:15 | 48.72516 | 2.36732 | 298 ft | 16 kts | 252° |
| 2026-04-15 13:15 | 48.72539 | 2.36599 | 299 ft | 14 kts | 321° |
| 2026-04-15 13:15 | 48.72552 | 2.36478 | 296 ft | 13 kts | 260° |
| 2026-04-15 13:15 | 48.72598 | 2.36398 | 297 ft | 7 kts | 342° |
| 2026-04-15 13:16 | 48.72626 | 2.36388 | 299 ft | 1 kts | 346° |
| 2026-04-15 13:16 | 48.72633 | 2.36385 | 298 ft | 0 kts | 344° |